Time;durP1;ratioP1;P1;durP2;ratioP2;P2;SDS_P1;SDS_P2;PMS_P1;PMS_P2;Temp;Humidity;BMP_temperature;BMP_pressure;BME280_temperature;BME280_humidity;BME280_pressure;Samples;Min_cycle;Max_cycle;Signal;HPM_P1;HPM_P2
2023/04/19 00:01:11;;;;;;;6.93;6.32;;;12.70;77.50;;;;;;5063543;28;20449;-69
2023/04/19 00:03:38;;;;;;;6.70;6.10;;;12.70;77.90;;;;;;5062263;28;20592;-69
2023/04/19 00:06:07;;;;;;;6.72;6.13;;;12.70;78.50;;;;;;5063369;28;20415;-69
2023/04/19 00:08:35;;;;;;;6.93;6.32;;;12.70;77.90;;;;;;5063022;28;20533;-69
2023/04/19 00:11:01;;;;;;;6.57;5.97;;;12.70;78.90;;;;;;5064619;28;20446;-69
2023/04/19 00:13:28;;;;;;;7.00;6.40;;;12.70;79.30;;;;;;5065647;28;20514;-69
2023/04/19 00:15:55;;;;;;;6.47;5.88;;;12.70;78.70;;;;;;5061757;28;20448;-69
2023/04/19 00:18:21;;;;;;;6.50;5.90;;;12.70;79.00;;;;;;5063450;28;20427;-69
2023/04/19 00:20:48;;;;;;;6.82;6.18;;;12.60;79.10;;;;;;5063345;28;20435;-69
2023/04/19 00:23:15;;;;;;;7.00;6.40;;;12.60;79.20;;;;;;5068222;28;20757;-69
2023/04/19 00:25:45;;;;;;;6.50;6.00;;;12.60;79.70;;;;;;5073181;28;20886;-69
2023/04/19 00:28:12;;;;;;;5.85;5.35;;;12.60;79.70;;;;;;5073290;28;20443;-69
2023/04/19 00:30:38;;;;;;;6.15;5.65;;;12.60;80.00;;;;;;5062770;28;20415;-69
2023/04/19 00:33:11;;;;;;;6.00;5.50;;;12.60;80.30;;;;;;5062041;28;20437;-69
2023/04/19 00:35:38;;;;;;;6.40;5.90;;;12.60;80.40;;;;;;5060580;28;20535;-69
2023/04/19 00:38:04;;;;;;;5.80;5.40;;;12.60;80.20;;;;;;5069779;28;20427;-69
2023/04/19 00:40:31;;;;;;;6.35;5.85;;;12.60;80.60;;;;;;5067984;28;20885;-69
2023/04/19 00:42:59;;;;;;;6.00;5.50;;;12.60;81.10;;;;;;5062518;28;20435;-69
2023/04/19 00:45:26;;;;;;;6.30;5.80;;;12.60;81.40;;;;;;5067110;28;20527;-69
2023/04/19 00:47:53;;;;;;;6.00;5.50;;;12.60;81.20;;;;;;5066950;28;21025;-69
2023/04/19 00:50:21;;;;;;;6.40;5.90;;;12.60;80.90;;;;;;5065825;28;20427;-69
2023/04/19 00:52:48;;;;;;;6.50;5.90;;;12.60;81.40;;;;;;5067085;28;20871;-69
2023/04/19 00:55:15;;;;;;;5.70;5.10;;;12.50;81.30;;;;;;5068382;28;20442;-69
2023/04/19 00:57:42;;;;;;;6.00;5.50;;;12.50;81.70;;;;;;5076747;28;20822;-69
2023/04/19 01:00:11;;;;;;;5.80;5.32;;;12.50;82.00;;;;;;5071249;28;20489;-69
2023/04/19 01:02:38;;;;;;;5.30;4.90;;;12.50;82.30;;;;;;5073494;28;20464;-69
2023/04/19 01:05:05;;;;;;;5.90;5.40;;;12.50;82.60;;;;;;5066152;28;20812;-69
2023/04/19 01:07:33;;;;;;;6.07;5.57;;;12.50;82.70;;;;;;5068184;28;20912;-69
2023/04/19 01:10:00;;;;;;;5.47;5.00;;;12.50;82.90;;;;;;5067019;28;20868;-69
2023/04/19 01:12:27;;;;;;;6.20;5.70;;;12.50;82.80;;;;;;5065594;28;20435;-69
2023/04/19 01:14:53;;;;;;;5.50;5.10;;;12.50;83.50;;;;;;5066832;28;20419;-69
2023/04/19 01:17:22;;;;;;;5.80;5.30;;;12.50;83.30;;;;;;5066537;28;21040;-69
2023/04/19 01:19:48;;;;;;;5.78;5.38;;;12.40;83.90;;;;;;5096799;22;20864;-71
2023/04/19 01:22:20;;;;;;;5.85;5.35;;;12.50;83.40;;;;;;5087525;28;20426;-70
2023/04/19 01:24:47;;;;;;;6.00;5.50;;;12.50;83.90;;;;;;5076603;28;20471;-70
2023/04/19 01:27:15;;;;;;;6.10;5.50;;;12.40;83.60;;;;;;5092524;28;20412;-71
2023/04/19 01:29:42;;;;;;;5.38;4.93;;;12.40;83.70;;;;;;5081319;28;20436;-71
2023/04/19 01:32:08;;;;;;;5.80;5.38;;;12.40;84.50;;;;;;5080456;28;20417;-71
2023/04/19 01:34:35;;;;;;;5.60;5.10;;;12.40;84.60;;;;;;5090398;28;20418;-71
2023/04/19 01:37:02;;;;;;;5.60;5.10;;;12.50;84.60;;;;;;5071081;28;20438;-70
2023/04/19 01:39:30;;;;;;;5.47;4.97;;;12.40;85.00;;;;;;5080075;28;20475;-70
2023/04/19 01:41:57;;;;;;;5.63;5.13;;;12.40;85.30;;;;;;5092633;28;20780;-70
2023/04/19 01:44:23;;;;;;;5.50;5.10;;;12.30;85.40;;;;;;5091702;28;20421;-72
2023/04/19 01:46:50;;;;;;;6.07;5.57;;;12.20;86.00;;;;;;5070498;28;20442;-70
2023/04/19 01:49:17;;;;;;;5.68;5.18;;;12.10;86.70;;;;;;5078791;28;20423;-71
2023/04/19 01:51:44;;;;;;;6.15;5.63;;;12.10;87.40;;;;;;5070766;28;20435;-71
2023/04/19 01:54:11;;;;;;;5.70;5.30;;;12.10;88.10;;;;;;5082530;28;20420;-71
2023/04/19 01:56:39;;;;;;;5.95;5.45;;;12.00;88.50;;;;;;5091164;28;20430;-70
2023/04/19 01:59:05;;;;;;;6.17;5.67;;;12.00;89.10;;;;;;5091640;28;20429;-70
2023/04/19 02:01:32;;;;;;;5.93;5.50;;;12.00;89.60;;;;;;5094582;28;20452;-71
2023/04/19 02:03:59;;;;;;;5.60;5.10;;;11.90;89.80;;;;;;5093728;28;20418;-71
2023/04/19 02:06:26;;;;;;;5.70;5.30;;;11.90;89.70;;;;;;5084574;28;20461;-70
2023/04/19 02:08:53;;;;;;;6.40;5.80;;;11.90;90.00;;;;;;5076262;28;20448;-70
2023/04/19 02:11:20;;;;;;;6.28;5.68;;;11.80;89.90;;;;;;5091463;28;20409;-71
2023/04/19 02:13:48;;;;;;;5.93;5.43;;;11.80;90.20;;;;;;5072001;28;20421;-71
2023/04/19 02:16:14;;;;;;;6.07;5.57;;;11.80;90.30;;;;;;5082247;28;20430;-71
2023/04/19 02:18:41;;;;;;;6.00;5.50;;;11.80;90.70;;;;;;5077036;28;20422;-71
2023/04/19 02:21:09;;;;;;;6.38;5.88;;;11.80;90.80;;;;;;5073816;28;20453;-71
2023/04/19 02:23:36;;;;;;;6.30;5.70;;;11.80;90.80;;;;;;5076500;28;20468;-71
2023/04/19 02:26:03;;;;;;;6.20;5.60;;;11.70;90.90;;;;;;5083833;28;20410;-70
2023/04/19 02:28:29;;;;;;;6.75;6.15;;;11.80;91.20;;;;;;5078661;28;20414;-71
2023/04/19 02:30:58;;;;;;;6.78;6.18;;;11.80;90.90;;;;;;5085908;28;20419;-71
2023/04/19 02:33:27;;;;;;;6.63;6.13;;;11.90;91.10;;;;;;5078476;28;20418;-70
2023/04/19 02:35:54;;;;;;;6.90;6.40;;;11.90;91.20;;;;;;5083666;28;20435;-70
2023/04/19 02:38:21;;;;;;;7.10;6.50;;;11.90;91.00;;;;;;5083260;28;20923;-70
2023/04/19 02:40:47;;;;;;;7.22;6.53;;;11.90;90.90;;;;;;5078749;28;20931;-70
2023/04/19 02:43:14;;;;;;;6.85;6.35;;;12.00;90.90;;;;;;5072508;28;21386;-71
2023/04/19 02:45:41;;;;;;;7.65;6.95;;;11.90;91.10;;;;;;5065503;28;20427;-70
2023/04/19 02:48:09;;;;;;;7.70;7.10;;;11.90;91.10;;;;;;5074449;28;20423;-71
2023/04/19 02:50:37;;;;;;;7.53;6.93;;;12.00;91.00;;;;;;5072296;28;20443;-70
2023/04/19 02:53:04;;;;;;;7.80;7.20;;;11.90;90.90;;;;;;5077696;28;20413;-70
2023/04/19 02:55:30;;;;;;;7.97;7.38;;;11.90;91.00;;;;;;5070486;28;20423;-71
2023/04/19 02:57:57;;;;;;;8.23;7.53;;;11.90;91.10;;;;;;5070300;28;20513;-71
2023/04/19 03:00:24;;;;;;;8.50;7.80;;;12.00;91.20;;;;;;5071839;28;20425;-70
2023/04/19 03:02:51;;;;;;;8.60;7.90;;;11.90;91.20;;;;;;5075579;28;20447;-70
2023/04/19 03:05:19;;;;;;;8.93;8.13;;;11.90;91.10;;;;;;5083485;28;20407;-71
2023/04/19 03:07:46;;;;;;;10.10;9.30;;;11.90;91.30;;;;;;5081192;28;20421;-71
2023/04/19 03:10:12;;;;;;;9.77;8.88;;;11.90;91.20;;;;;;5074305;28;20412;-71
2023/04/19 03:12:39;;;;;;;9.93;9.02;;;11.90;91.50;;;;;;5069165;28;20416;-70
2023/04/19 03:15:07;;;;;;;10.80;9.90;;;11.90;91.50;;;;;;5073431;28;20423;-71
2023/04/19 03:17:34;;;;;;;11.32;10.25;;;11.90;91.50;;;;;;5078009;28;20463;-70
2023/04/19 03:20:01;;;;;;;11.38;10.38;;;11.90;91.50;;;;;;5068314;28;20463;-70
2023/04/19 03:22:29;;;;;;;12.10;11.00;;;11.90;91.50;;;;;;5072080;28;20431;-71
2023/04/19 03:24:56;;;;;;;12.20;11.00;;;11.80;91.50;;;;;;5073774;28;20421;-70
2023/04/19 03:27:23;;;;;;;11.00;10.00;;;11.80;91.70;;;;;;5089849;28;20420;-71
2023/04/19 03:29:49;;;;;;;11.75;10.75;;;11.80;91.90;;;;;;5077983;28;20808;-71
2023/04/19 03:32:16;;;;;;;11.15;10.25;;;11.80;92.00;;;;;;5076342;28;20427;-71
2023/04/19 03:34:43;;;;;;;11.38;10.43;;;11.70;92.10;;;;;;5076477;28;20869;-71
2023/04/19 03:37:09;;;;;;;11.32;10.32;;;11.80;92.30;;;;;;5084331;28;20446;-71
2023/04/19 03:39:38;;;;;;;11.45;10.43;;;11.70;92.30;;;;;;5088324;28;20414;-71
2023/04/19 03:42:04;;;;;;;11.82;10.82;;;11.80;92.40;;;;;;5077186;28;20507;-71
2023/04/19 03:44:32;;;;;;;10.98;10.07;;;11.70;92.40;;;;;;5083099;28;21123;-71
2023/04/19 03:46:59;;;;;;;10.85;9.95;;;11.80;92.50;;;;;;5077668;28;20463;-71
2023/04/19 03:49:26;;;;;;;11.13;10.25;;;11.70;92.50;;;;;;5077967;28;20498;-71
2023/04/19 03:51:52;;;;;;;10.55;9.65;;;11.70;92.60;;;;;;5071515;28;20445;-70
2023/04/19 03:54:19;;;;;;;10.88;10.00;;;11.70;92.90;;;;;;5084743;28;20415;-70
2023/04/19 03:56:48;;;;;;;10.02;9.02;;;11.70;93.00;;;;;;5098914;28;20432;-70
2023/04/19 03:59:15;;;;;;;10.20;9.30;;;11.70;93.00;;;;;;5081469;28;20424;-71
2023/04/19 04:01:41;;;;;;;10.38;9.40;;;11.70;93.20;;;;;;5108578;28;20421;-70
2023/04/19 04:04:08;;;;;;;10.43;9.53;;;11.60;93.40;;;;;;5084484;28;20641;-71
2023/04/19 04:06:35;;;;;;;10.30;9.50;;;11.60;93.50;;;;;;5070279;28;20420;-72
2023/04/19 04:09:02;;;;;;;11.25;10.05;;;11.60;93.60;;;;;;5072475;28;20437;-70
2023/04/19 04:11:29;;;;;;;11.13;10.23;;;11.70;93.70;;;;;;5067464;28;20810;-71
2023/04/19 04:13:57;;;;;;;10.52;9.63;;;11.60;93.80;;;;;;5066064;28;20433;-70
2023/04/19 04:16:24;;;;;;;10.50;9.70;;;11.50;93.80;;;;;;5068364;28;20411;-71
2023/04/19 04:18:51;;;;;;;10.80;9.90;;;11.60;93.90;;;;;;5075593;28;20452;-70
2023/04/19 04:21:18;;;;;;;10.97;10.07;;;11.50;94.00;;;;;;5079158;28;20419;-68
2023/04/19 04:23:46;;;;;;;11.00;10.10;;;11.50;94.00;;;;;;5085993;28;20457;-68
2023/04/19 04:26:12;;;;;;;11.00;10.10;;;11.50;94.20;;;;;;5090117;28;20413;-67
2023/04/19 04:28:39;;;;;;;10.35;9.55;;;11.50;94.20;;;;;;5065312;28;20438;-68
2023/04/19 04:31:08;;;;;;;11.00;10.10;;;11.60;94.30;;;;;;5068587;28;20877;-69
2023/04/19 04:33:36;;;;;;;11.48;10.48;;;11.60;94.00;;;;;;5073319;28;20431;-68
2023/04/19 04:36:04;;;;;;;11.40;10.35;;;11.60;94.00;;;;;;5065093;28;20434;-69
2023/04/19 04:38:31;;;;;;;10.77;9.88;;;11.60;93.90;;;;;;5058414;28;20950;-68
2023/04/19 04:40:58;;;;;;;11.20;10.27;;;11.60;94.00;;;;;;5074807;28;20429;-68
2023/04/19 04:43:27;;;;;;;11.27;10.27;;;11.60;93.80;;;;;;5060611;28;20438;-69
2023/04/19 04:45:56;;;;;;;11.75;10.65;;;11.60;93.90;;;;;;5080759;28;20414;-69
2023/04/19 04:48:24;;;;;;;11.00;10.10;;;11.60;93.90;;;;;;5073944;28;20424;-69
2023/04/19 04:50:51;;;;;;;11.30;10.40;;;11.60;93.80;;;;;;5065412;28;20427;-70
2023/04/19 04:53:18;;;;;;;11.38;10.38;;;11.60;93.80;;;;;;5060138;28;20440;-71
2023/04/19 04:55:44;;;;;;;11.23;10.32;;;11.60;93.80;;;;;;5072594;28;20902;-70
2023/04/19 04:58:11;;;;;;;12.10;11.00;;;11.60;93.70;;;;;;5068286;28;20511;-69
2023/04/19 05:00:38;;;;;;;10.90;10.00;;;11.60;93.60;;;;;;5066816;28;20466;-71
2023/04/19 05:03:05;;;;;;;11.90;10.80;;;11.60;93.60;;;;;;5067722;28;20419;-70
2023/04/19 05:05:33;;;;;;;11.13;10.13;;;11.60;93.60;;;;;;5065201;28;20430;-71
2023/04/19 05:08:00;;;;;;;11.68;10.57;;;11.60;93.70;;;;;;5058142;28;20914;-70
2023/04/19 05:10:26;;;;;;;11.20;10.30;;;11.70;93.70;;;;;;5068729;28;20412;-70
2023/04/19 05:12:53;;;;;;;10.80;9.90;;;11.70;93.50;;;;;;5066270;28;20584;-70
2023/04/19 05:15:20;;;;;;;11.57;10.47;;;11.70;93.40;;;;;;5065163;28;20416;-70
2023/04/19 05:17:47;;;;;;;11.60;10.50;;;11.60;93.40;;;;;;5059448;28;20781;-71
2023/04/19 05:20:13;;;;;;;10.98;10.07;;;11.70;93.40;;;;;;5065788;28;20778;-70
2023/04/19 05:22:42;;;;;;;11.48;10.48;;;11.70;93.10;;;;;;5073860;28;20437;-71
2023/04/19 05:25:10;;;;;;;12.15;11.05;;;11.60;93.00;;;;;;5075813;28;20407;-71
2023/04/19 05:27:37;;;;;;;11.52;10.63;;;11.60;92.90;;;;;;5081354;28;20794;-70
2023/04/19 05:30:04;;;;;;;11.80;10.80;;;11.70;92.70;;;;;;5081903;28;20490;-69
2023/04/19 05:32:31;;;;;;;12.05;11.15;;;11.70;92.70;;;;;;5090770;28;20447;-69
2023/04/19 05:34:58;;;;;;;11.87;10.87;;;11.70;92.50;;;;;;5090414;28;20488;-71
2023/04/19 05:37:25;;;;;;;11.93;10.63;;;11.70;92.40;;;;;;5083077;28;21064;-70
2023/04/19 05:39:53;;;;;;;12.10;11.00;;;11.70;92.40;;;;;;5065819;28;20441;-71
2023/04/19 05:42:20;;;;;;;12.02;10.93;;;11.70;92.30;;;;;;5074687;28;20411;-71
2023/04/19 05:44:46;;;;;;;10.75;9.85;;;11.70;92.30;;;;;;5086851;28;20441;-70
2023/04/19 05:47:13;;;;;;;11.30;10.30;;;11.70;92.10;;;;;;5085650;28;20434;-70
2023/04/19 05:49:40;;;;;;;12.07;11.00;;;11.70;92.00;;;;;;5083795;28;20421;-71
2023/04/19 05:52:06;;;;;;;11.60;10.50;;;11.70;91.70;;;;;;5078077;28;20423;-71
2023/04/19 05:54:34;;;;;;;11.73;10.73;;;11.80;91.50;;;;;;5070935;28;20440;-71
2023/04/19 05:57:03;;;;;;;11.50;10.50;;;11.80;91.60;;;;;;5072268;28;20422;-71
2023/04/19 05:59:30;;;;;;;11.68;10.60;;;11.80;91.40;;;;;;5082120;28;20432;-71
2023/04/19 06:01:56;;;;;;;12.00;10.90;;;11.80;91.30;;;;;;5079580;28;20439;-69
2023/04/19 06:04:23;;;;;;;11.10;10.00;;;11.90;91.40;;;;;;5072129;28;20436;-70
2023/04/19 06:06:50;;;;;;;11.93;10.73;;;11.90;90.90;;;;;;5058610;28;20432;-70
2023/04/19 06:09:17;;;;;;;12.27;11.18;;;11.90;91.00;;;;;;5070508;28;20523;-70
2023/04/19 06:11:44;;;;;;;12.10;10.90;;;11.90;91.00;;;;;;5091510;28;20682;-70
2023/04/19 06:14:13;;;;;;;12.30;11.10;;;11.90;90.80;;;;;;5111238;28;20407;-71
2023/04/19 06:16:39;;;;;;;11.98;10.88;;;11.90;90.40;;;;;;5094500;28;20510;-70
2023/04/19 06:19:06;;;;;;;13.98;12.57;;;11.90;90.80;;;;;;5096621;28;20514;-70
2023/04/19 06:21:34;;;;;;;11.98;10.98;;;11.90;90.60;;;;;;5081876;28;20430;-70
2023/04/19 06:24:00;;;;;;;11.50;10.50;;;11.90;90.60;;;;;;5075069;28;20567;-70
2023/04/19 06:26:27;;;;;;;11.80;10.90;;;12.00;90.60;;;;;;5071272;28;20993;-70
2023/04/19 06:28:54;;;;;;;10.68;9.77;;;12.00;90.10;;;;;;5071688;28;20540;-70
2023/04/19 06:31:23;;;;;;;10.90;9.85;;;12.00;90.00;;;;;;5078692;28;20412;-70
2023/04/19 06:33:50;;;;;;;10.38;9.38;;;12.00;89.70;;;;;;5078588;28;20431;-70
2023/04/19 06:36:18;;;;;;;9.98;8.98;;;12.10;88.10;;;;;;5076378;28;20406;-71
2023/04/19 06:38:45;;;;;;;9.80;9.00;;;12.10;88.20;;;;;;5090916;28;20432;-70
2023/04/19 06:41:11;;;;;;;9.87;8.90;;;12.10;87.60;;;;;;5091292;28;20600;-71
2023/04/19 06:43:39;;;;;;;10.60;9.60;;;12.20;87.00;;;;;;5090986;28;20410;-70
2023/04/19 06:46:06;;;;;;;9.00;8.30;;;12.20;86.60;;;;;;5071078;28;20451;-70
2023/04/19 06:48:35;;;;;;;9.20;8.40;;;12.30;86.00;;;;;;5064284;28;20429;-70
2023/04/19 06:51:02;;;;;;;8.40;7.70;;;12.30;85.30;;;;;;5070315;28;20437;-70
2023/04/19 06:53:28;;;;;;;9.57;8.68;;;12.30;84.20;;;;;;5069555;28;20439;-70
2023/04/19 06:55:59;;;;;;;8.30;7.40;;;12.30;84.00;;;;;;5070004;28;20763;-70
2023/04/19 06:58:26;;;;;;;8.40;7.60;;;12.40;82.70;;;;;;5070259;28;21031;-71
2023/04/19 07:00:53;;;;;;;8.30;7.60;;;12.40;82.60;;;;;;5070718;28;20915;-71
2023/04/19 07:03:20;;;;;;;8.10;7.40;;;12.50;82.50;;;;;;5066189;28;20841;-71
2023/04/19 07:05:48;;;;;;;7.95;7.25;;;12.60;81.60;;;;;;5061739;28;20423;-71
2023/04/19 07:08:15;;;;;;;7.03;6.43;;;12.70;79.90;;;;;;5068050;28;20414;-72
2023/04/19 07:10:42;;;;;;;7.32;6.72;;;12.80;77.70;;;;;;5093387;28;20417;-71
2023/04/19 07:13:10;;;;;;;7.28;6.68;;;12.80;77.10;;;;;;5085782;28;20411;-72
2023/04/19 07:15:37;;;;;;;7.32;6.72;;;12.90;76.40;;;;;;5087888;28;20434;-71
2023/04/19 07:18:04;;;;;;;7.00;6.40;;;12.90;76.10;;;;;;5079454;28;20550;-71
2023/04/19 07:20:31;;;;;;;7.53;6.30;;;13.00;76.30;;;;;;5087906;28;20421;-71
2023/04/19 07:22:59;;;;;;;7.72;6.70;;;13.20;75.30;;;;;;5086472;28;20414;-71
2023/04/19 07:25:27;;;;;;;6.70;6.10;;;13.30;74.20;;;;;;5092533;28;20909;-72
2023/04/19 07:27:54;;;;;;;7.10;6.40;;;13.40;74.20;;;;;;5078189;28;20416;-71
2023/04/19 07:30:21;;;;;;;6.10;5.60;;;13.60;71.80;;;;;;5085249;28;20405;-71
2023/04/19 07:32:50;;;;;;;6.15;5.65;;;13.80;71.30;;;;;;5081247;28;20419;-72
2023/04/19 07:35:17;;;;;;;6.38;5.78;;;13.90;69.70;;;;;;5074880;28;20427;-71
2023/04/19 07:37:43;;;;;;;6.05;5.55;;;14.10;68.00;;;;;;5068199;28;20431;-71
2023/04/19 07:40:12;;;;;;;5.85;5.35;;;14.30;66.60;;;;;;5069315;28;20432;-71
2023/04/19 07:42:39;;;;;;;5.70;5.30;;;14.60;65.40;;;;;;5094668;28;20929;-71
2023/04/19 07:45:07;;;;;;;5.50;5.00;;;14.80;64.00;;;;;;5089676;28;20412;-71
2023/04/19 07:47:34;;;;;;;6.15;5.55;;;15.00;62.40;;;;;;5075213;28;20461;-72
2023/04/19 07:50:01;;;;;;;5.40;4.90;;;15.20;60.70;;;;;;5067595;28;20431;-71
2023/04/19 07:52:27;;;;;;;4.97;4.57;;;15.30;59.10;;;;;;5071148;28;20915;-71
2023/04/19 07:54:54;;;;;;;5.03;4.63;;;15.40;57.20;;;;;;5089800;28;20429;-71
2023/04/19 07:57:22;;;;;;;5.30;4.80;;;15.50;57.20;;;;;;5087715;28;20853;-71
2023/04/19 07:59:49;;;;;;;5.40;4.90;;;15.60;55.60;;;;;;5077881;28;20787;-71
2023/04/19 08:02:17;;;;;;;5.00;4.50;;;15.50;54.20;;;;;;5066546;28;20518;-72
2023/04/19 08:04:47;;;;;;;5.88;4.70;;;15.50;55.00;;;;;;5081468;28;20741;-71
2023/04/19 08:07:13;;;;;;;6.05;4.63;;;15.50;53.80;;;;;;5082849;28;20419;-72
2023/04/19 08:09:40;;;;;;;5.97;5.30;;;15.60;54.50;;;;;;5082265;28;20418;-72
2023/04/19 08:12:07;;;;;;;5.82;4.50;;;15.70;54.50;;;;;;5075724;28;20425;-72
2023/04/19 08:14:37;;;;;;;4.97;4.57;;;15.80;53.30;;;;;;5075762;28;20420;-71
2023/04/19 08:17:04;;;;;;;5.10;4.60;;;15.90;53.10;;;;;;5062071;28;21032;-71
2023/04/19 08:19:31;;;;;;;4.97;4.50;;;16.00;51.90;;;;;;5077002;28;20425;-71
2023/04/19 08:21:58;;;;;;;4.93;4.53;;;16.10;51.30;;;;;;5063540;28;20416;-71
2023/04/19 08:24:25;;;;;;;4.60;4.20;;;16.20;51.90;;;;;;5082573;28;20471;-71
2023/04/19 08:26:53;;;;;;;5.20;4.70;;;16.40;50.20;;;;;;5069101;28;20431;-71
2023/04/19 08:29:20;;;;;;;4.70;4.30;;;16.50;49.50;;;;;;5069639;28;20468;-71
2023/04/19 08:31:49;;;;;;;5.13;4.63;;;16.70;49.30;;;;;;5075117;28;20430;-71
2023/04/19 08:34:15;;;;;;;4.80;4.40;;;16.80;49.00;;;;;;5071151;28;20408;-71
2023/04/19 08:36:44;;;;;;;4.82;4.43;;;16.90;48.80;;;;;;5092852;28;20416;-72
2023/04/19 08:39:12;;;;;;;5.07;4.57;;;17.00;48.00;;;;;;5089558;28;20828;-71
2023/04/19 08:41:39;;;;;;;4.95;4.45;;;17.10;47.40;;;;;;5077337;28;20487;-72
2023/04/19 08:44:06;;;;;;;5.10;4.60;;;17.20;47.10;;;;;;5083313;28;20421;-72
2023/04/19 08:46:33;;;;;;;5.07;4.57;;;17.40;47.00;;;;;;5073740;28;20932;-72
2023/04/19 08:49:04;;;;;;;6.50;4.72;;;17.50;46.40;;;;;;5099365;22;20453;-71
2023/04/19 08:51:32;;;;;;;5.13;4.32;;;17.70;45.50;;;;;;5079885;28;20440;-71
2023/04/19 08:53:59;;;;;;;6.05;4.53;;;17.80;44.20;;;;;;5075949;28;20453;-71
2023/04/19 08:56:27;;;;;;;6.40;4.47;;;17.90;43.70;;;;;;5079750;28;20457;-71
2023/04/19 08:58:54;;;;;;;4.63;4.23;;;18.00;42.20;;;;;;5084200;28;20427;-73
2023/04/19 09:01:20;;;;;;;4.87;4.37;;;18.00;41.10;;;;;;5066037;28;20439;-70
2023/04/19 09:03:47;;;;;;;4.53;3.78;;;18.20;40.40;;;;;;5068979;28;20413;-72
2023/04/19 09:06:15;;;;;;;3.92;3.63;;;18.30;40.50;;;;;;5087514;28;20457;-71
2023/04/19 09:08:42;;;;;;;4.90;4.40;;;18.50;40.40;;;;;;5067848;28;20518;-72
2023/04/19 09:11:09;;;;;;;4.60;4.20;;;18.60;39.60;;;;;;5067367;28;20423;-72
2023/04/19 09:13:37;;;;;;;4.57;4.18;;;18.80;39.90;;;;;;5066704;28;20444;-72
2023/04/19 09:16:06;;;;;;;4.90;4.07;;;18.90;39.70;;;;;;5064892;28;20472;-71
2023/04/19 09:18:33;;;;;;;4.80;4.00;;;19.00;39.60;;;;;;5071636;28;20497;-72
2023/04/19 09:21:00;;;;;;;7.40;6.75;;;19.20;38.70;;;;;;5079969;28;20450;-71
2023/04/19 09:23:28;;;;;;;4.32;3.92;;;19.20;38.20;;;;;;5065674;28;20869;-72
2023/04/19 09:25:59;;;;;;;3.80;3.42;;;19.20;36.20;;;;;;5077325;28;20889;-70
2023/04/19 09:28:26;;;;;;;3.60;3.30;;;19.20;36.70;;;;;;5080024;28;20449;-72
2023/04/19 09:30:54;;;;;;;3.90;3.50;;;19.20;36.00;;;;;;5065173;28;20443;-73
2023/04/19 09:33:44;;;;;;;3.57;3.27;;;19.30;35.80;;;;;;5066115;28;20470;-72
2023/04/19 09:36:10;;;;;;;4.20;3.20;;;19.30;35.40;;;;;;5070678;28;20495;-72
2023/04/19 09:38:48;;;;;;;3.80;3.50;;;19.30;35.90;;;;;;5076362;28;20783;-70
2023/04/19 09:41:16;;;;;;;4.72;3.40;;;19.40;35.50;;;;;;5071846;28;20514;-70
2023/04/19 09:43:42;;;;;;;4.80;3.83;;;19.40;34.40;;;;;;5072541;28;20408;-72
2023/04/19 09:46:09;;;;;;;3.97;3.30;;;19.20;34.00;;;;;;5065591;28;20495;-72
2023/04/19 09:48:36;;;;;;;4.30;3.90;;;19.00;35.00;;;;;;5078050;28;20437;-71
2023/04/19 09:51:03;;;;;;;3.90;3.50;;;19.10;35.10;;;;;;5073356;28;20469;-70
2023/04/19 09:53:32;;;;;;;3.80;3.50;;;19.10;34.50;;;;;;5073011;28;20949;-72
2023/04/19 09:56:01;;;;;;;3.97;3.58;;;19.20;34.20;;;;;;5066823;28;20434;-72
2023/04/19 09:58:28;;;;;;;4.05;3.28;;;19.30;33.90;;;;;;5066410;28;20806;-72
2023/04/19 10:00:57;;;;;;;4.38;3.97;;;19.50;33.60;;;;;;5063583;28;20766;-72
2023/04/19 10:03:29;;;;;;;5.00;3.80;;;19.50;33.50;;;;;;5065279;28;20419;-72
2023/04/19 10:05:56;;;;;;;5.30;3.80;;;19.60;33.50;;;;;;5066387;28;20627;-71
2023/04/19 10:08:24;;;;;;;4.30;3.50;;;19.50;34.20;;;;;;5065907;28;20427;-70
2023/04/19 10:10:53;;;;;;;3.85;3.40;;;19.50;33.00;;;;;;5075614;28;20461;-70
2023/04/19 10:13:23;;;;;;;4.20;3.20;;;19.50;32.30;;;;;;5066646;28;20427;-70
2023/04/19 10:15:50;;;;;;;3.70;3.27;;;19.50;32.50;;;;;;5066860;28;20454;-69
2023/04/19 10:18:17;;;;;;;4.03;3.33;;;19.70;32.10;;;;;;5069169;28;20452;-70
2023/04/19 10:20:51;;;;;;;4.70;3.80;;;19.80;32.30;;;;;;5075614;28;20423;-72
2023/04/19 10:23:19;;;;;;;3.97;3.38;;;19.80;32.70;;;;;;5065144;28;20424;-70
2023/04/19 10:25:47;;;;;;;4.63;3.50;;;20.00;33.20;;;;;;5066058;28;20504;-72
2023/04/19 10:28:15;;;;;;;3.60;3.30;;;20.00;32.50;;;;;;5066365;28;20451;-70
2023/04/19 10:30:55;;;;;;;3.53;3.28;;;20.10;32.60;;;;;;5075815;28;20455;-70
2023/04/19 10:33:26;;;;;;;3.40;3.00;;;20.30;32.80;;;;;;5056658;28;20554;-71
2023/04/19 10:35:56;;;;;;;4.50;3.20;;;20.50;31.90;;;;;;5055781;28;20433;-71
2023/04/19 10:38:36;;;;;;;4.20;2.85;;;20.60;30.80;;;;;;5066283;28;20411;-72
2023/04/19 10:41:04;;;;;;;3.70;2.90;;;20.50;31.50;;;;;;5065061;28;20455;-71
2023/04/19 10:43:31;;;;;;;4.95;3.03;;;20.70;31.60;;;;;;5061154;28;20828;-72
2023/04/19 10:46:07;;;;;;;4.60;3.28;;;20.70;31.00;;;;;;5064917;28;20503;-72
2023/04/19 10:48:39;;;;;;;3.70;3.40;;;20.80;31.40;;;;;;5065279;28;20423;-71
2023/04/19 10:51:14;;;;;;;3.70;3.40;;;20.90;31.20;;;;;;5068943;28;20414;-70
2023/04/19 10:53:49;;;;;;;4.00;3.35;;;20.90;30.70;;;;;;5065448;28;20442;-69
2023/04/19 10:56:17;;;;;;;2.95;2.75;;;21.00;30.70;;;;;;5065313;28;20492;-70
2023/04/19 10:59:20;;;;;;;3.63;3.30;;;21.20;30.50;;;;;;5064807;28;20475;-70
2023/04/19 11:01:52;;;;;;;3.30;3.00;;;21.30;30.40;;;;;;5059431;28;21007;-69
2023/04/19 11:04:20;;;;;;;4.72;3.20;;;21.50;29.80;;;;;;5065836;28;20418;-69
2023/04/19 11:07:04;;;;;;;3.15;2.67;;;21.50;29.90;;;;;;5064466;28;20427;-69
2023/04/19 11:09:34;;;;;;;4.93;3.67;;;21.60;28.70;;;;;;5060245;28;20411;-69
2023/04/19 11:12:02;;;;;;;3.03;2.60;;;21.60;28.60;;;;;;5067775;28;20405;-68
2023/04/19 11:14:35;;;;;;;2.70;2.50;;;21.70;28.40;;;;;;5071168;28;20415;-70
2023/04/19 11:17:13;;;;;;;3.28;2.70;;;21.80;28.10;;;;;;5064151;28;20498;-68
2023/04/19 11:19:42;;;;;;;3.57;3.27;;;21.70;27.60;;;;;;5062804;28;20443;-71
2023/04/19 11:22:09;;;;;;;4.30;2.60;;;21.60;27.80;;;;;;5063722;28;20482;-70
2023/04/19 11:24:36;;;;;;;3.08;2.78;;;21.60;28.20;;;;;;5064509;28;20469;-70
2023/04/19 11:27:08;;;;;;;2.75;2.45;;;21.70;28.10;;;;;;5064429;28;20427;-69
2023/04/19 11:29:35;;;;;;;3.83;2.60;;;21.80;27.90;;;;;;5064602;28;20503;-69
2023/04/19 11:32:04;;;;;;;3.40;2.60;;;21.70;27.90;;;;;;5063946;28;20974;-70
2023/04/19 11:34:36;;;;;;;2.90;2.40;;;21.70;28.20;;;;;;5063098;28;20439;-69
2023/04/19 11:37:02;;;;;;;2.97;2.60;;;21.80;27.80;;;;;;5066123;28;21088;-68
2023/04/19 11:39:29;;;;;;;2.78;2.50;;;21.80;28.10;;;;;;5064196;28;20423;-67
2023/04/19 11:41:56;;;;;;;4.25;3.30;;;21.80;28.40;;;;;;5065108;28;20453;-69
2023/04/19 11:44:23;;;;;;;2.80;2.55;;;21.90;28.00;;;;;;5055732;28;20442;-70
2023/04/19 11:47:00;;;;;;;2.60;2.40;;;21.90;28.00;;;;;;5062369;28;20439;-71
2023/04/19 11:49:30;;;;;;;3.15;2.50;;;22.00;27.00;;;;;;5058914;28;20491;-68
2023/04/19 11:51:59;;;;;;;3.03;2.72;;;22.20;27.50;;;;;;5077539;28;20413;-71
2023/04/19 11:54:26;;;;;;;2.73;2.53;;;22.40;26.70;;;;;;5071804;28;20414;-68
2023/04/19 11:57:00;;;;;;;3.28;2.42;;;22.60;26.40;;;;;;5069609;28;20439;-69
2023/04/19 11:59:28;;;;;;;3.00;2.42;;;22.50;26.30;;;;;;5058615;28;20952;-68
2023/04/19 12:01:54;;;;;;;2.30;2.10;;;22.50;25.90;;;;;;5077232;28;20880;-70
2023/04/19 12:04:22;;;;;;;3.63;2.70;;;22.50;26.00;;;;;;5063872;28;20423;-70
2023/04/19 12:06:59;;;;;;;3.47;2.40;;;22.80;25.90;;;;;;5065330;28;20746;-70
2023/04/19 12:09:26;;;;;;;2.92;2.30;;;23.10;25.90;;;;;;5060854;28;20424;-69
2023/04/19 12:11:53;;;;;;;3.47;2.30;;;23.40;25.60;;;;;;5071905;28;20845;-70
2023/04/19 12:14:22;;;;;;;2.50;1.90;;;23.60;25.30;;;;;;5077102;28;20485;-70
2023/04/19 12:17:10;;;;;;;2.90;1.90;;;23.30;24.50;;;;;;5063099;28;20619;-69
2023/04/19 12:19:41;;;;;;;2.70;2.20;;;23.00;24.80;;;;;;5062932;28;20489;-68
2023/04/19 12:22:11;;;;;;;3.10;1.80;;;22.70;25.00;;;;;;5062817;28;20435;-67
2023/04/19 12:24:39;;;;;;;1.90;1.67;;;22.60;25.00;;;;;;5055372;28;20485;-68
2023/04/19 12:27:06;;;;;;;3.25;1.70;;;22.60;24.40;;;;;;5063060;28;20415;-69
2023/04/19 12:29:33;;;;;;;2.88;1.80;;;22.70;24.60;;;;;;5058379;28;20436;-70
2023/04/19 12:32:00;;;;;;;2.90;2.40;;;22.70;24.20;;;;;;5065217;28;20746;-68
2023/04/19 12:34:27;;;;;;;2.13;1.70;;;22.70;23.80;;;;;;5070382;28;20501;-68
2023/04/19 12:36:54;;;;;;;2.60;1.60;;;22.50;23.90;;;;;;5077197;28;20991;-68
2023/04/19 12:39:23;;;;;;;3.58;2.03;;;22.30;24.20;;;;;;5070006;28;20425;-68
2023/04/19 12:41:50;;;;;;;2.33;1.65;;;22.40;24.20;;;;;;5070204;28;20423;-71
2023/04/19 12:44:16;;;;;;;2.05;1.80;;;22.50;24.50;;;;;;5075934;28;20574;-70
2023/04/19 12:46:43;;;;;;;2.10;1.90;;;22.90;24.20;;;;;;5068098;28;20426;-68